Time;durP1;ratioP1;P1;durP2;ratioP2;P2;SDS_P1;SDS_P2;PMS_P1;PMS_P2;Temp;Humidity;BMP_temperature;BMP_pressure;BME280_temperature;BME280_humidity;BME280_pressure;Samples;Min_cycle;Max_cycle;Signal;HPM_P1;HPM_P2
2022/02/02 06:44:19;;;;;;;5.60;2.03;;;;;;;;;;6334812;22;20097;-81
2022/02/02 06:46:46;;;;;;;2.30;1.98;;;;;;;;;;6311465;22;20014;-81
2022/02/02 06:49:11;;;;;;;4.07;1.80;;;;;;;;;;6338849;22;20007;-83
2022/02/02 06:51:48;;;;;;;4.13;1.80;;;;;;;;;;6344680;22;19999;-82
2022/02/02 06:54:26;;;;;;;5.35;1.90;;;;;;;;;;6370523;22;20022;-82
2022/02/02 06:57:04;;;;;;;2.67;1.83;;;;;;;;;;6370231;22;20428;-84
2022/02/02 07:02:33;;;;;;;1.85;1.55;;;;;;;;;;6376363;22;20336;-81
2022/02/02 10:34:12;;;;;;;3.53;3.22;;;;;;;;;;6328607;22;20019;-81
2022/02/02 10:36:38;;;;;;;3.63;3.13;;;;;;;;;;6311077;22;20089;-83
2022/02/02 10:39:09;;;;;;;3.60;3.30;;;;;;;;;;6339086;22;20030;-83
2022/02/02 10:41:58;;;;;;;5.38;3.42;;;;;;;;;;6357392;22;20008;-83
2022/02/02 10:44:32;;;;;;;4.22;3.85;;;;;;;;;;6372760;22;20022;-81
2022/02/02 10:47:15;;;;;;;5.25;3.38;;;;;;;;;;6372988;22;20055;-82
2022/02/02 10:57:47;;;;;;;4.17;3.37;;;;;;;;;;6382198;22;20049;-83
2022/02/02 11:00:28;;;;;;;2.72;2.53;;;;;;;;;;6372487;22;20005;-82
2022/02/02 11:08:26;;;;;;;2.75;2.55;;;;;;;;;;6372484;22;20089;-81
2022/02/02 11:10:51;;;;;;;2.58;2.25;;;;;;;;;;6372088;22;20025;-82
2022/02/02 11:13:17;;;;;;;2.45;2.28;;;;;;;;;;6372365;22;20413;-82
2022/02/02 11:15:51;;;;;;;2.08;1.98;;;;;;;;;;6373149;22;20540;-82
2022/02/02 11:18:29;;;;;;;1.98;1.88;;;;;;;;;;6343709;22;20458;-81
2022/02/02 11:21:05;;;;;;;3.28;2.30;;;;;;;;;;6372031;22;20041;-80
2022/02/02 11:23:44;;;;;;;1.83;1.70;;;;;;;;;;6372296;22;20013;-81
2022/02/02 11:26:10;;;;;;;1.73;1.63;;;;;;;;;;6372458;22;19998;-81
2022/02/02 11:28:37;;;;;;;1.60;1.50;;;;;;;;;;6372390;22;20013;-81
2022/02/02 11:31:10;;;;;;;1.40;1.30;;;;;;;;;;6372380;22;20003;-82
2022/02/02 11:33:44;;;;;;;1.48;1.20;;;;;;;;;;6372188;22;20009;-84
2022/02/02 11:36:19;;;;;;;1.70;1.60;;;;;;;;;;6371779;22;20007;-81
2022/02/02 11:38:45;;;;;;;3.95;1.52;;;;;;;;;;6343946;22;20436;-81
2022/02/02 11:46:45;;;;;;;2.30;1.50;;;;;;;;;;6377011;22;20006;-83
2022/02/02 11:49:17;;;;;;;2.10;1.90;;;;;;;;;;6372237;22;20003;-84
2022/02/02 11:51:50;;;;;;;6.00;3.55;;;;;;;;;;6371753;22;20001;-82
2022/02/02 11:54:18;;;;;;;1.40;1.30;;;;;;;;;;6372355;22;20053;-81
2022/02/02 11:57:11;;;;;;;2.55;2.15;;;;;;;;;;6371703;22;20006;-81
2022/02/02 12:02:39;;;;;;;4.10;1.50;;;;;;;;;;6372167;22;20014;-80
2022/02/02 12:08:09;;;;;;;3.38;1.48;;;;;;;;;;6383029;22;20009;-80
2022/02/02 12:47:11;;;;;;;1.30;1.20;;;;;;;;;;6371659;22;20099;-80
2022/02/02 12:50:02;;;;;;;1.08;0.88;;;;;;;;;;6371615;22;20369;-87
2022/02/02 19:55:48;;;;;;;30.45;13.48;;;;;;;;;;6291033;22;20008;-83
2022/02/02 20:12:19;;;;;;;6.18;5.68;;;;;;;;;;6309108;22;20010;-84
2022/02/02 20:14:44;;;;;;;5.30;4.90;;;;;;;;;;6308786;22;20415;-84
2022/02/02 20:17:14;;;;;;;2.33;2.22;;;;;;;;;;6308717;22;20015;-84
2022/02/02 20:19:43;;;;;;;1.60;1.50;;;;;;;;;;6281513;22;19999;-85
2022/02/02 20:22:09;;;;;;;1.15;1.05;;;;;;;;;;6308856;22;20498;-84
2022/02/02 20:24:40;;;;;;;1.85;1.58;;;;;;;;;;6308771;22;20034;-85
2022/02/02 20:27:08;;;;;;;12.00;7.53;;;;;;;;;;6308756;22;20003;-84
2022/02/02 20:29:33;;;;;;;6.68;5.43;;;;;;;;;;6310850;22;20006;-83
2022/02/02 20:31:59;;;;;;;3.78;2.55;;;;;;;;;;6339944;22;19999;-83
2022/02/02 20:34:24;;;;;;;2.08;1.52;;;;;;;;;;6340302;22;20036;-83
2022/02/02 20:36:50;;;;;;;1.30;1.00;;;;;;;;;;6339960;22;20417;-82
2022/02/02 20:39:34;;;;;;;0.55;0.50;;;;;;;;;;6340370;22;20038;-83
2022/02/02 20:42:03;;;;;;;1.00;0.90;;;;;;;;;;6339841;22;19999;-83
2022/02/02 20:44:47;;;;;;;0.75;0.60;;;;;;;;;;6340308;22;20415;-83
2022/02/02 21:06:40;;;;;;;1.03;0.70;;;;;;;;;;6281886;22;20022;-82
2022/02/02 21:09:37;;;;;;;1.25;1.10;;;;;;;;;;6339688;22;20002;-83
2022/02/02 21:14:37;;;;;;;1.00;0.90;;;;;;;;;;6348960;22;20426;-82
2022/02/02 21:17:05;;;;;;;2.03;0.80;;;;;;;;;;6339380;22;20098;-84
2022/02/02 21:19:39;;;;;;;0.73;0.65;;;;;;;;;;6339717;22;20417;-82
2022/02/02 21:22:05;;;;;;;0.80;0.60;;;;;;;;;;6339781;22;20385;-81
2022/02/02 21:29:44;;;;;;;0.80;0.70;;;;;;;;;;6346799;22;20453;-82
2022/02/02 21:32:10;;;;;;;1.65;0.70;;;;;;;;;;6339588;22;20069;-85
2022/02/02 21:34:36;;;;;;;0.80;0.80;;;;;;;;;;6339680;22;20003;-85
2022/02/02 21:37:05;;;;;;;1.63;0.75;;;;;;;;;;6338004;22;20006;-81
2022/02/02 21:39:32;;;;;;;1.13;0.70;;;;;;;;;;6339353;22;20077;-82
2022/02/02 21:41:58;;;;;;;1.02;0.68;;;;;;;;;;6339498;22;19995;-81
2022/02/02 21:44:24;;;;;;;1.67;0.90;;;;;;;;;;6311422;22;20406;-81
2022/02/02 21:46:50;;;;;;;6.65;4.22;;;;;;;;;;6311313;22;20075;-83
2022/02/02 21:49:21;;;;;;;1.75;1.13;;;;;;;;;;6311517;22;20003;-85
2022/02/02 21:52:02;;;;;;;1.80;1.10;;;;;;;;;;6339311;22;20002;-82
2022/02/02 21:54:28;;;;;;;1.10;0.90;;;;;;;;;;6339166;22;20002;-81
2022/02/02 21:56:54;;;;;;;1.30;0.95;;;;;;;;;;6339141;22;20002;-81
2022/02/02 21:59:19;;;;;;;0.88;0.80;;;;;;;;;;6339256;22;20025;-85
2022/02/02 22:01:45;;;;;;;0.80;0.75;;;;;;;;;;6339635;22;20073;-81
2022/02/02 22:04:10;;;;;;;0.75;0.70;;;;;;;;;;6339425;22;20077;-81
2022/02/02 22:06:36;;;;;;;1.75;0.80;;;;;;;;;;6339210;22;20042;-82
2022/02/02 22:09:03;;;;;;;0.90;0.80;;;;;;;;;;6339252;22;20051;-85
2022/02/02 22:11:29;;;;;;;1.02;0.80;;;;;;;;;;6338943;22;20007;-81
2022/02/02 22:14:17;;;;;;;0.80;0.70;;;;;;;;;;6339262;22;20075;-81
2022/02/02 22:16:45;;;;;;;0.82;0.52;;;;;;;;;;6339020;22;20015;-82
2022/02/02 22:19:10;;;;;;;1.00;0.57;;;;;;;;;;6339547;22;20354;-81
2022/02/02 22:21:36;;;;;;;0.82;0.80;;;;;;;;;;6339381;22;20029;-83
2022/02/02 22:24:02;;;;;;;0.80;0.60;;;;;;;;;;6339773;22;20007;-80
2022/02/02 22:26:29;;;;;;;1.02;0.70;;;;;;;;;;6311863;22;19998;-84
2022/02/02 22:28:55;;;;;;;1.55;0.80;;;;;;;;;;6340223;22;20007;-84
2022/02/02 22:31:20;;;;;;;0.88;0.82;;;;;;;;;;6338958;22;20007;-81
2022/02/02 22:33:46;;;;;;;0.70;0.70;;;;;;;;;;6339303;22;19995;-82
2022/02/02 22:36:11;;;;;;;1.38;1.10;;;;;;;;;;6339466;22;20003;-82
2022/02/02 22:38:37;;;;;;;1.00;0.80;;;;;;;;;;6341037;22;20013;-81
2022/02/02 22:41:02;;;;;;;0.80;0.68;;;;;;;;;;6342003;22;20479;-81
2022/02/02 22:43:32;;;;;;;1.40;0.70;;;;;;;;;;6313826;22;20002;-83
